createdAt,value
2023-11-30T00:01:25.977Z,99453.69
2023-11-30T00:03:54.672Z,99444.11
2023-11-30T00:06:22.835Z,99439.64
2023-11-30T00:08:51.120Z,99442.41
2023-11-30T00:11:19.287Z,99445.65
2023-11-30T00:13:47.373Z,99450.08
2023-11-30T00:16:15.355Z,99444.84
2023-11-30T00:18:43.431Z,99447.49
2023-11-30T00:21:11.638Z,99445.23
2023-11-30T00:23:39.633Z,99445.25
2023-11-30T00:26:07.669Z,99448.21
2023-11-30T00:28:37.623Z,99445.94
2023-11-30T00:31:06.567Z,99436.85
2023-11-30T00:33:35.100Z,99438.14
2023-11-30T00:36:03.632Z,99439.95
2023-11-30T00:38:32.480Z,99442.34
2023-11-30T00:41:00.495Z,99439.72
2023-11-30T00:43:28.479Z,99441.69
2023-11-30T00:46:03.440Z,99446.34
2023-11-30T00:48:38.353Z,99437.88
2023-11-30T00:51:12.157Z,99440.44
2023-11-30T00:53:40.278Z,99442.86
2023-11-30T00:56:10.466Z,99441.94
2023-11-30T00:58:38.465Z,99443.25
2023-11-30T01:01:06.551Z,99442.56
2023-11-30T01:03:34.598Z,99444.59
2023-11-30T01:06:02.875Z,99441.33
2023-11-30T01:08:30.858Z,99438.77
2023-11-30T01:10:58.974Z,99445.36
2023-11-30T01:13:26.963Z,99442.29
2023-11-30T01:15:55.410Z,99439.63
2023-11-30T01:18:23.508Z,99438.91
2023-11-30T01:20:51.683Z,99443.02
2023-11-30T01:23:19.690Z,99436.59
2023-11-30T01:25:47.736Z,99435.80
2023-11-30T01:28:15.830Z,99428.13
2023-11-30T01:30:43.875Z,99426.52
2023-11-30T01:33:12.355Z,99422.36
2023-11-30T01:35:40.463Z,99423.25
2023-11-30T01:38:08.462Z,99422.73
2023-11-30T01:40:36.463Z,99426.64
2023-11-30T01:43:07.247Z,99424.33
2023-11-30T01:45:35.290Z,99422.39
2023-11-30T01:48:03.581Z,99422.06
2023-11-30T01:50:31.817Z,99427.39
2023-11-30T01:52:59.792Z,99425.48
2023-11-30T01:55:27.803Z,99422.44
2023-11-30T01:57:55.784Z,99413.73
2023-11-30T02:00:23.981Z,99414.60
2023-11-30T02:02:52.093Z,99408.80
2023-11-30T02:05:20.854Z,99407.27
2023-11-30T02:07:48.939Z,99405.05
2023-11-30T02:10:18.485Z,99403.96
2023-11-30T02:12:46.761Z,99405.48
2023-11-30T02:15:15.046Z,99402.90
2023-11-30T02:17:46.341Z,99409.30
2023-11-30T02:20:14.865Z,99413.58
2023-11-30T02:22:43.176Z,99412.23
2023-11-30T02:25:11.249Z,99408.89
2023-11-30T02:27:39.393Z,99409.61
2023-11-30T02:30:09.979Z,99410.17
2023-11-30T02:32:38.217Z,99408.91
2023-11-30T02:35:06.811Z,99406.20
2023-11-30T02:37:34.978Z,99411.29
2023-11-30T02:40:03.955Z,99413.61
2023-11-30T02:42:32.144Z,99415.41
2023-11-30T02:45:00.279Z,99411.46
2023-11-30T02:47:28.454Z,99408.14
2023-11-30T02:49:56.527Z,99408.45
2023-11-30T02:52:24.633Z,99410.30
2023-11-30T02:54:52.781Z,99412.64
2023-11-30T02:57:20.979Z,99412.34
2023-11-30T02:59:49.314Z,99415.01
2023-11-30T03:02:17.505Z,99409.77
2023-11-30T03:04:46.497Z,99399.70
2023-11-30T03:07:14.877Z,99399.15
2023-11-30T03:09:43.059Z,99391.81
2023-11-30T03:12:11.269Z,99399.96
2023-11-30T03:14:39.428Z,99397.42
2023-11-30T03:17:07.604Z,99395.98
2023-11-30T03:19:35.757Z,99396.52
2023-11-30T03:22:04.077Z,99393.61
2023-11-30T03:24:32.206Z,99389.90
2023-11-30T03:27:00.438Z,99386.11
2023-11-30T03:29:28.608Z,99379.23
2023-11-30T03:31:56.929Z,99379.20
2023-11-30T03:34:25.121Z,99379.20
2023-11-30T03:36:53.408Z,99382.55
2023-11-30T03:39:21.577Z,99381.20
2023-11-30T03:41:49.754Z,99378.34
2023-11-30T03:44:17.826Z,99378.08
2023-11-30T03:46:45.903Z,99382.27
2023-11-30T03:49:14.055Z,99386.80
2023-11-30T03:51:42.410Z,99385.94
2023-11-30T03:54:10.741Z,99383.42
2023-11-30T03:56:38.899Z,99387.38
2023-11-30T03:59:06.973Z,99383.60
2023-11-30T04:01:35.195Z,99381.17
2023-11-30T04:04:03.560Z,99379.02
2023-11-30T04:06:31.745Z,99379.66
2023-11-30T04:09:00.672Z,99381.96
2023-11-30T04:11:28.754Z,99379.52
2023-11-30T04:14:07.354Z,99375.98
2023-11-30T04:16:36.514Z,99373.08
2023-11-30T04:19:04.521Z,99367.38
2023-11-30T04:21:32.624Z,99369.30
2023-11-30T04:24:00.664Z,99363.02
2023-11-30T04:26:28.682Z,99361.48
2023-11-30T04:28:56.691Z,99357.85
2023-11-30T04:31:24.809Z,99361.16
2023-11-30T04:33:52.899Z,99362.16
2023-11-30T04:36:20.984Z,99360.27
2023-11-30T04:38:49.070Z,99369.06
2023-11-30T04:41:17.101Z,99366.73
2023-11-30T04:43:45.091Z,99363.10
2023-11-30T04:46:13.727Z,99361.27
2023-11-30T04:48:42.554Z,99362.16
2023-11-30T04:51:10.745Z,99358.40
2023-11-30T04:53:39.009Z,99357.33
2023-11-30T04:56:07.404Z,99357.91
2023-11-30T04:58:35.580Z,99359.20
2023-11-30T05:01:03.865Z,99355.89
2023-11-30T05:03:32.171Z,99351.91
2023-11-30T05:06:00.530Z,99358.23
2023-11-30T05:08:28.584Z,99359.62
2023-11-30T05:10:56.575Z,99355.95
2023-11-30T05:13:24.533Z,99353.15
2023-11-30T05:15:52.517Z,99353.81
2023-11-30T05:18:20.899Z,99356.08
2023-11-30T05:20:49.261Z,99354.92
2023-11-30T05:23:17.862Z,99353.90
2023-11-30T05:25:45.992Z,99349.11
2023-11-30T05:28:13.962Z,99353.88
2023-11-30T05:30:42.237Z,99353.42
2023-11-30T05:33:10.836Z,99348.19
2023-11-30T05:35:39.843Z,99350.41
2023-11-30T05:38:07.883Z,99350.84
2023-11-30T05:40:36.344Z,99347.77
2023-11-30T05:43:04.369Z,99356.55
2023-11-30T05:45:32.426Z,99357.31
2023-11-30T05:48:00.541Z,99352.80
2023-11-30T05:50:29.521Z,99358.86
2023-11-30T05:52:57.508Z,99350.84
2023-11-30T05:55:25.517Z,99354.09
2023-11-30T05:57:53.538Z,99351.98
2023-11-30T06:00:23.238Z,99358.02
2023-11-30T06:02:51.843Z,99358.95
2023-11-30T06:05:19.947Z,99355.77
2023-11-30T06:07:48.288Z,99354.48
2023-11-30T06:10:16.479Z,99359.27
2023-11-30T06:12:44.481Z,99362.52
2023-11-30T06:15:12.729Z,99357.40
2023-11-30T06:17:40.813Z,99359.84
2023-11-30T06:20:11.809Z,99357.69
2023-11-30T06:22:40.809Z,99354.88
2023-11-30T06:25:10.210Z,99363.55
2023-11-30T06:27:38.567Z,99366.45
2023-11-30T06:30:08.589Z,99366.13
2023-11-30T06:32:36.668Z,99366.94
2023-11-30T06:35:05.589Z,99370.21
2023-11-30T06:37:33.673Z,99374.18
2023-11-30T06:40:01.759Z,99370.91
2023-11-30T06:42:30.143Z,99372.38
2023-11-30T06:44:58.459Z,99371.00
2023-11-30T06:47:26.598Z,99373.77
2023-11-30T06:49:54.758Z,99371.80
2023-11-30T06:52:23.029Z,99373.46
2023-11-30T06:54:51.418Z,99369.68
2023-11-30T06:57:19.558Z,99373.51
2023-11-30T06:59:47.494Z,99378.98
2023-11-30T07:02:15.518Z,99375.06
2023-11-30T07:04:43.709Z,99373.81
2023-11-30T07:07:20.335Z,99376.19
2023-11-30T07:09:56.258Z,99374.69
2023-11-30T07:12:24.717Z,99379.66
2023-11-30T07:14:53.861Z,99377.70
2023-11-30T07:17:25.337Z,99382.76
2023-11-30T07:19:54.296Z,99388.67
2023-11-30T07:22:26.182Z,99393.60
2023-11-30T07:24:54.391Z,99397.92
2023-11-30T07:27:22.435Z,99399.85
2023-11-30T07:29:50.613Z,99395.84
2023-11-30T07:32:18.670Z,99404.90
2023-11-30T07:34:47.052Z,99406.08
2023-11-30T07:37:16.772Z,99401.32
2023-11-30T07:39:45.499Z,99400.05
2023-11-30T07:42:26.080Z,99405.95
2023-11-30T07:45:03.096Z,99405.81
2023-11-30T07:47:31.966Z,99404.83
2023-11-30T07:50:00.544Z,99411.67
2023-11-30T07:52:28.738Z,99400.72
2023-11-30T07:54:56.794Z,99403.44
2023-11-30T07:57:25.113Z,99405.64
2023-11-30T07:59:53.170Z,99406.09
2023-11-30T08:02:21.251Z,99410.90
2023-11-30T08:04:49.298Z,99410.42
2023-11-30T08:07:17.410Z,99417.89
2023-11-30T08:09:45.453Z,99413.36
2023-11-30T08:12:13.502Z,99413.89
2023-11-30T08:14:41.564Z,99414.79
2023-11-30T08:17:09.534Z,99411.40
2023-11-30T08:19:37.570Z,99413.98
2023-11-30T08:22:07.699Z,99410.05
2023-11-30T08:24:35.932Z,99404.45
2023-11-30T08:27:04.312Z,99411.16
2023-11-30T08:29:32.426Z,99412.98
2023-11-30T08:32:00.714Z,99410.08
2023-11-30T08:34:28.980Z,99409.70
2023-11-30T08:36:57.585Z,99413.17
2023-11-30T08:39:25.770Z,99413.23
2023-11-30T08:41:54.850Z,99413.17
2023-11-30T08:44:26.034Z,99409.73
2023-11-30T08:46:54.472Z,99421.35
2023-11-30T08:49:23.622Z,99419.17
2023-11-30T08:51:53.365Z,99422.49
2023-11-30T08:54:22.637Z,99423.06
2023-11-30T08:56:50.826Z,99427.14
2023-11-30T08:59:20.098Z,99425.10
2023-11-30T09:01:49.946Z,99426.35
2023-11-30T09:04:18.435Z,99430.48
2023-11-30T09:06:46.649Z,99432.33
2023-11-30T09:09:14.718Z,99432.46
2023-11-30T09:11:46.208Z,99433.23
2023-11-30T09:14:14.291Z,99428.50
2023-11-30T09:16:42.486Z,99425.11
2023-11-30T09:19:10.473Z,99427.60
2023-11-30T09:21:38.673Z,99423.75
2023-11-30T09:24:07.286Z,99425.96
2023-11-30T09:26:35.377Z,99421.30
2023-11-30T09:29:04.409Z,99422.17
2023-11-30T09:31:33.165Z,99419.69
2023-11-30T09:34:01.962Z,99413.95
2023-11-30T09:36:30.509Z,99413.17
2023-11-30T09:38:58.760Z,99409.81
2023-11-30T09:41:27.082Z,99401.71
2023-11-30T09:43:57.030Z,99397.98
2023-11-30T09:46:25.935Z,99397.30
2023-11-30T09:48:53.958Z,99397.17
2023-11-30T09:51:22.828Z,99389.79
2023-11-30T09:53:51.042Z,99384.02
2023-11-30T09:56:19.200Z,99388.94
2023-11-30T09:58:47.313Z,99378.45
2023-11-30T10:01:15.443Z,99372.05
2023-11-30T10:03:43.819Z,99363.39
2023-11-30T10:06:12.237Z,99365.81
2023-11-30T10:08:40.708Z,99361.91
2023-11-30T10:11:09.310Z,99358.36
2023-11-30T10:13:37.449Z,99361.23
2023-11-30T10:16:08.710Z,99358.85
2023-11-30T10:18:36.960Z,99356.98
2023-11-30T10:21:05.184Z,99354.42
2023-11-30T10:23:34.485Z,99358.19
2023-11-30T10:26:03.288Z,99354.37
2023-11-30T10:28:31.565Z,99357.56
2023-11-30T10:31:00.586Z,99354.27
2023-11-30T10:33:28.780Z,99351.54
2023-11-30T10:36:02.145Z,99348.98
2023-11-30T10:38:32.681Z,99349.92
2023-11-30T10:41:11.385Z,99352.38
2023-11-30T10:43:39.474Z,99355.55
2023-11-30T10:46:08.748Z,99353.79
2023-11-30T10:48:38.089Z,99360.23
2023-11-30T10:51:06.702Z,99358.55
2023-11-30T10:53:46.216Z,99358.42
2023-11-30T10:56:14.631Z,99361.14
2023-11-30T10:58:45.906Z,99359.02
2023-11-30T11:01:15.095Z,99359.34
2023-11-30T11:03:49.617Z,99356.05
2023-11-30T11:06:17.784Z,99357.69
2023-11-30T11:09:02.395Z,99360.33
2023-11-30T11:11:30.915Z,99357.60
2023-11-30T11:13:59.102Z,99361.95
2023-11-30T11:16:38.406Z,99363.69
2023-11-30T11:19:06.595Z,99369.02
2023-11-30T11:21:38.877Z,99366.75
2023-11-30T11:24:08.380Z,99367.48
2023-11-30T11:26:42.516Z,99362.05
2023-11-30T11:29:10.601Z,99363.69
2023-11-30T11:31:38.686Z,99363.61
2023-11-30T11:34:07.679Z,99366.21
2023-11-30T11:36:39.291Z,99359.22
2023-11-30T11:39:07.726Z,99357.77
2023-11-30T11:41:35.711Z,99358.95
2023-11-30T11:44:04.532Z,99348.73
2023-11-30T11:46:32.597Z,99352.27
2023-11-30T11:49:00.619Z,99343.71
2023-11-30T11:51:29.385Z,99344.70
2023-11-30T11:53:57.879Z,99337.35
2023-11-30T11:56:25.953Z,99340.85
2023-11-30T11:58:53.906Z,99336.40
2023-11-30T12:01:23.011Z,99337.56
2023-11-30T12:03:52.220Z,99331.27
2023-11-30T12:06:30.137Z,99339.13
2023-11-30T12:09:10.643Z,99341.65
2023-11-30T12:11:40.808Z,99336.80
2023-11-30T12:14:10.940Z,99333.77
2023-11-30T12:16:39.011Z,99335.73
2023-11-30T12:19:06.993Z,99336.30
2023-11-30T12:21:36.845Z,99334.73
2023-11-30T12:24:05.087Z,99331.64
2023-11-30T12:26:33.085Z,99331.02
2023-11-30T12:29:01.128Z,99326.66
2023-11-30T12:31:29.226Z,99326.10
2023-11-30T12:33:57.351Z,99322.93
2023-11-30T12:36:25.664Z,99317.39
2023-11-30T12:38:54.026Z,99319.27
2023-11-30T12:41:22.105Z,99320.16
2023-11-30T12:43:50.389Z,99321.73
2023-11-30T12:46:18.619Z,99320.34
2023-11-30T12:48:47.334Z,99320.11
2023-11-30T12:51:16.409Z,99324.02
2023-11-30T12:53:44.895Z,99324.16
2023-11-30T12:56:13.671Z,99320.31
2023-11-30T12:58:41.688Z,99318.19
2023-11-30T13:01:09.768Z,99319.64
2023-11-30T13:03:38.081Z,99312.26
2023-11-30T13:06:06.619Z,99309.36
2023-11-30T13:08:34.747Z,99305.13
2023-11-30T13:11:03.097Z,99306.06
2023-11-30T13:13:41.801Z,99305.73
2023-11-30T13:16:11.044Z,99311.80
2023-11-30T13:18:40.142Z,99314.73
2023-11-30T13:21:08.510Z,99315.19
2023-11-30T13:23:36.523Z,99313.03
2023-11-30T13:26:04.614Z,99309.02
2023-11-30T13:28:37.696Z,99309.52
2023-11-30T13:31:10.021Z,99306.96
2023-11-30T13:33:38.249Z,99306.40
2023-11-30T13:36:07.199Z,99309.49
2023-11-30T13:38:35.872Z,99305.78
2023-11-30T13:41:04.941Z,99298.81
2023-11-30T13:43:32.939Z,99297.02
2023-11-30T13:46:01.003Z,99299.85
2023-11-30T13:48:29.490Z,99296.09
2023-11-30T13:51:00.871Z,99299.83
2023-11-30T13:53:31.420Z,99299.27
2023-11-30T13:55:59.630Z,99294.96
2023-11-30T13:58:28.112Z,99293.10
2023-11-30T14:00:56.271Z,99298.98
2023-11-30T14:03:24.350Z,99297.86
2023-11-30T14:05:53.786Z,99295.70
2023-11-30T14:08:22.281Z,99288.94
2023-11-30T14:10:50.274Z,99286.23
2023-11-30T14:13:18.271Z,99287.09
2023-11-30T14:15:46.475Z,99291.87
2023-11-30T14:18:14.622Z,99287.52
2023-11-30T14:20:42.795Z,99289.98
2023-11-30T14:23:10.960Z,99285.25
2023-11-30T14:25:39.001Z,99291.10
2023-11-30T14:28:12.207Z,99286.10
2023-11-30T14:30:41.945Z,99284.35
2023-11-30T14:33:12.578Z,99290.50
2023-11-30T14:35:42.280Z,99294.25
2023-11-30T14:38:10.716Z,99292.35
2023-11-30T14:40:38.850Z,99287.67
2023-11-30T14:43:07.408Z,99294.28
2023-11-30T14:45:35.511Z,99296.36
2023-11-30T14:48:07.427Z,99297.82
2023-11-30T14:50:36.600Z,99297.59
2023-11-30T14:53:06.070Z,99305.27
2023-11-30T14:55:34.380Z,99306.52
2023-11-30T14:58:02.397Z,99301.52
2023-11-30T15:00:31.134Z,99302.80
2023-11-30T15:03:03.283Z,99296.34
2023-11-30T15:05:31.622Z,99294.45
2023-11-30T15:07:59.729Z,99298.00
2023-11-30T15:10:28.299Z,99294.11
2023-11-30T15:12:56.398Z,99292.48
2023-11-30T15:15:25.470Z,99293.79
2023-11-30T15:17:53.682Z,99299.19
2023-11-30T15:20:23.309Z,99290.33
2023-11-30T15:22:51.570Z,99296.54
2023-11-30T15:25:20.261Z,99293.00
2023-11-30T15:27:49.670Z,99290.78
2023-11-30T15:30:18.635Z,99293.30
2023-11-30T15:32:46.845Z,99287.73
2023-11-30T15:35:15.195Z,99292.31
2023-11-30T15:37:49.387Z,99294.11
2023-11-30T15:40:18.579Z,99294.33
2023-11-30T15:42:46.845Z,99287.52
2023-11-30T15:45:18.414Z,99290.23
2023-11-30T15:47:47.046Z,99292.02
2023-11-30T15:50:15.292Z,99288.95
2023-11-30T15:52:43.701Z,99290.42
2023-11-30T15:55:12.878Z,99285.54
2023-11-30T15:57:41.683Z,99287.02
2023-11-30T16:00:10.276Z,99283.58
2023-11-30T16:02:43.191Z,99279.39
2023-11-30T16:05:11.422Z,99280.33
2023-11-30T16:07:39.387Z,99281.11
2023-11-30T16:10:08.088Z,99278.27
2023-11-30T16:12:36.148Z,99278.19
2023-11-30T16:15:05.739Z,99282.41
2023-11-30T16:17:33.838Z,99285.85
2023-11-30T16:20:06.429Z,99287.16
2023-11-30T16:22:34.535Z,99296.07
2023-11-30T16:25:02.707Z,99291.54
2023-11-30T16:27:30.921Z,99293.38
2023-11-30T16:29:59.020Z,99289.31
2023-11-30T16:32:27.124Z,99292.98
2023-11-30T16:34:55.201Z,99285.26
2023-11-30T16:37:23.539Z,99285.87
2023-11-30T16:39:51.688Z,99287.66
2023-11-30T16:42:19.935Z,99282.40
2023-11-30T16:44:48.156Z,99283.41
2023-11-30T16:47:16.478Z,99282.48
2023-11-30T16:49:45.075Z,99284.19
2023-11-30T16:52:13.242Z,99281.20
2023-11-30T16:54:41.474Z,99287.20
2023-11-30T16:57:09.511Z,99286.18
2023-11-30T16:59:37.790Z,99283.73
2023-11-30T17:02:06.158Z,99279.85
2023-11-30T17:04:34.664Z,99277.90
2023-11-30T17:07:03.091Z,99280.52
2023-11-30T17:09:31.448Z,99278.84
2023-11-30T17:11:59.466Z,99280.76
2023-11-30T17:14:27.595Z,99276.86
2023-11-30T17:16:56.112Z,99275.04
2023-11-30T17:19:24.262Z,99275.81
2023-11-30T17:21:53.675Z,99270.98
2023-11-30T17:24:22.358Z,99270.67
2023-11-30T17:26:53.708Z,99269.66
2023-11-30T17:29:21.896Z,99268.75
2023-11-30T17:31:49.975Z,99272.52
2023-11-30T17:34:18.247Z,99266.73
2023-11-30T17:36:46.908Z,99267.99
2023-11-30T17:39:18.228Z,99270.46
2023-11-30T17:41:46.409Z,99263.63
2023-11-30T17:44:14.735Z,99266.48
2023-11-30T17:46:46.335Z,99268.24
2023-11-30T17:49:16.340Z,99272.45
2023-11-30T17:51:44.558Z,99268.87
2023-11-30T17:54:12.553Z,99271.91
2023-11-30T17:56:40.659Z,99265.70
2023-11-30T17:59:08.678Z,99263.89
2023-11-30T18:01:36.794Z,99264.38
2023-11-30T18:04:05.413Z,99266.09
2023-11-30T18:06:33.747Z,99265.52
2023-11-30T18:09:01.931Z,99262.21
2023-11-30T18:11:29.960Z,99256.70
2023-11-30T18:13:58.054Z,99260.73
2023-11-30T18:16:26.187Z,99259.96
2023-11-30T18:18:54.753Z,99260.64
2023-11-30T18:21:22.966Z,99263.67
2023-11-30T18:23:50.951Z,99265.96
2023-11-30T18:26:21.082Z,99263.22
2023-11-30T18:28:50.172Z,99265.33
2023-11-30T18:31:22.490Z,99265.71
2023-11-30T18:33:51.407Z,99268.34
2023-11-30T18:36:19.652Z,99267.67
2023-11-30T18:38:51.203Z,99259.38
2023-11-30T18:41:20.872Z,99259.59
2023-11-30T18:43:49.654Z,99260.16
2023-11-30T18:46:18.957Z,99263.85
2023-11-30T18:48:47.157Z,99261.63
2023-11-30T18:51:15.205Z,99260.15
2023-11-30T18:53:43.258Z,99255.07
2023-11-30T18:56:11.507Z,99250.52
2023-11-30T18:58:41.520Z,99248.92
2023-11-30T19:01:11.654Z,99247.91
2023-11-30T19:03:40.109Z,99243.48
2023-11-30T19:06:08.916Z,99248.02
2023-11-30T19:08:37.097Z,99246.73
2023-11-30T19:11:05.650Z,99253.70
2023-11-30T19:13:34.125Z,99248.95
2023-11-30T19:16:02.480Z,99247.33
2023-11-30T19:18:33.146Z,99242.61
2023-11-30T19:21:01.560Z,99238.83
2023-11-30T19:23:29.741Z,99237.98
2023-11-30T19:25:59.065Z,99234.54
2023-11-30T19:28:27.337Z,99229.25
2023-11-30T19:30:55.531Z,99229.98
2023-11-30T19:33:23.784Z,99228.95
2023-11-30T19:35:51.952Z,99223.67
2023-11-30T19:38:20.055Z,99222.58
2023-11-30T19:40:48.342Z,99218.80
2023-11-30T19:43:17.608Z,99214.93
2023-11-30T19:45:45.725Z,99208.30
2023-11-30T19:48:14.396Z,99206.88
2023-11-30T19:50:43.785Z,99205.59
2023-11-30T19:53:12.270Z,99203.63
2023-11-30T19:55:40.785Z,99205.01
2023-11-30T19:58:09.350Z,99204.02
2023-11-30T20:00:41.165Z,99206.75
2023-11-30T20:03:10.054Z,99205.34
2023-11-30T20:05:38.724Z,99202.50
2023-11-30T20:08:07.150Z,99204.70
2023-11-30T20:10:35.379Z,99205.56
2023-11-30T20:13:04.002Z,99210.17
2023-11-30T20:15:33.231Z,99208.15
2023-11-30T20:18:01.573Z,99212.00
2023-11-30T20:20:29.831Z,99214.79
2023-11-30T20:22:58.724Z,99219.70
2023-11-30T20:25:26.746Z,99216.95
2023-11-30T20:27:54.947Z,99215.87
2023-11-30T20:30:23.306Z,99211.73
2023-11-30T20:32:51.478Z,99211.17
2023-11-30T20:35:19.528Z,99212.86
2023-11-30T20:37:49.032Z,99215.20
2023-11-30T20:40:17.233Z,99209.42
2023-11-30T20:42:46.489Z,99207.36
2023-11-30T20:45:16.031Z,99197.92
2023-11-30T20:47:44.469Z,99197.16
2023-11-30T20:50:12.581Z,99197.06
2023-11-30T20:52:40.575Z,99199.05
2023-11-30T20:55:08.911Z,99194.15
2023-11-30T20:57:39.401Z,99194.41
2023-11-30T21:00:13.062Z,99196.70
2023-11-30T21:14:29.702Z,99201.86
2023-11-30T21:16:57.968Z,99197.48
2023-11-30T21:19:27.001Z,99192.66
2023-11-30T21:21:55.283Z,99197.80
2023-11-30T21:24:23.497Z,99193.42
2023-11-30T21:26:51.979Z,99195.05
2023-11-30T21:29:21.257Z,99201.46
2023-11-30T21:31:49.324Z,99193.79
2023-11-30T21:34:17.459Z,99186.58
2023-11-30T21:36:45.669Z,99182.67
2023-11-30T21:39:14.877Z,99188.45
2023-11-30T21:41:42.966Z,99188.64
2023-11-30T21:44:11.238Z,99178.36
2023-11-30T21:46:40.481Z,99174.27
2023-11-30T21:49:09.909Z,99186.09
2023-11-30T21:51:38.139Z,99185.77
2023-11-30T21:54:06.334Z,99189.54
2023-11-30T21:56:34.677Z,99187.56
2023-11-30T21:59:03.140Z,99191.98
2023-11-30T22:01:31.476Z,99187.58
2023-11-30T22:03:59.919Z,99189.85
2023-11-30T22:06:28.127Z,99192.98
2023-11-30T22:08:56.457Z,99191.73
2023-11-30T22:11:24.563Z,99196.61
2023-11-30T22:13:53.197Z,99200.69
2023-11-30T22:16:26.483Z,99201.84
2023-11-30T22:19:01.367Z,99202.71
2023-11-30T22:21:30.532Z,99196.42
2023-11-30T22:23:59.153Z,99205.27
2023-11-30T22:26:28.700Z,99203.51
2023-11-30T22:28:57.207Z,99201.84
2023-11-30T22:31:25.399Z,99206.17
2023-11-30T22:33:53.578Z,99213.11
2023-11-30T22:36:21.836Z,99212.15
2023-11-30T22:38:50.046Z,99215.50
2023-11-30T22:41:18.207Z,99212.40
2023-11-30T22:43:46.320Z,99211.81
2023-11-30T22:46:18.584Z,99210.16
2023-11-30T22:48:47.605Z,99206.97
2023-11-30T22:51:16.154Z,99208.73
2023-11-30T22:53:44.460Z,99204.23
2023-11-30T22:56:17.718Z,99208.77
2023-11-30T22:58:46.964Z,99207.16
2023-11-30T23:01:15.331Z,99204.14
2023-11-30T23:03:46.914Z,99203.18
2023-11-30T23:06:15.328Z,99204.98
2023-11-30T23:08:43.825Z,99208.27
2023-11-30T23:11:11.995Z,99206.02
2023-11-30T23:13:40.684Z,99211.15
2023-11-30T23:16:10.159Z,99209.25
2023-11-30T23:18:38.688Z,99203.55
2023-11-30T23:21:08.679Z,99203.06
2023-11-30T23:23:36.927Z,99206.48
2023-11-30T23:26:05.558Z,99212.64
2023-11-30T23:28:34.024Z,99214.33
2023-11-30T23:31:02.201Z,99215.09
2023-11-30T23:33:30.384Z,99209.24
2023-11-30T23:35:58.512Z,99207.55
2023-11-30T23:38:26.674Z,99209.11
2023-11-30T23:40:54.780Z,99203.35
2023-11-30T23:43:22.934Z,99197.13
2023-11-30T23:45:51.454Z,99197.77
2023-11-30T23:48:19.575Z,99190.70
2023-11-30T23:50:47.690Z,99189.34
2023-11-30T23:53:16.445Z,99192.23
2023-11-30T23:55:44.565Z,99191.89
2023-11-30T23:58:13.005Z,99196.21
